aviador You're here:

OIIE Decoded Metar

ABYEK in IRAN
Report Time2018-07-22 02:30:00
UTC Time2018-07-22 03:00:32
Flight Rules vfr VFR
Wind310° at 06 kt
W.Decomp.*RWY 29: 5.8 kt HW 1.7 kt RCW
W.Rank310° ranks 3
Current wind is below 310° avg. (11.6)
Visibility9999 m
Phenomena:N/A
Clouds:Few 100 Hf
Expected CloudBase > 4,000 ft AGL from Temp-Dew spread
CeilingNone
Temp24°C (ISA +16)
Dew Point14°C (54% RH)
AAT23.1°C
QNH1007 hPa
Density Alt5,522 ft
Elevation3,304 ft
Report Wrong Elevation
Raw Report
OIIE 220230Z 31006KT 9999 FEW100 24/14 Q1007=

Extra information for OIIE:More info

Metar Taf Metar & Taf Last 4 Metars F.Rules Stats Wind Profile Meteogram Temp Stats Airport Information Weather charts Add Link Nearby VenuesMetar ALERT Operation Metar Decoded Social comments